Terminal Aerodrome Forecast
Issued by NWS Tulsa, OK

Home | Current Version | Previous Version | Text Only | Print | Product List | Glossary On
Versions: 1 2 3 4 5 6 7 8 9 10 11 12 13 14 15 16 17 18 19 20 21 22 23 24 25 26 27 28 29 30 31 32 33 34 35
000
FTPQ31 PGUM 062320
TAFGUM
TAF

TAF
PTSA 062320Z 0700/0724 08011KT P6SM VCSH BKN015 BKN130
     FM070600 09013G20KT P6SM VCTS BKN014CB BKN130
     FM071700 12015G22KT P6SM VCTS BKN012CB BKN090=

USA.gov is the U.S. government's official web portal to all federal, state and local government web resources and services.